AAY22 KLAS-KSMX
Flight info
| Callsign | AAY22 |
|---|---|
| Flight time | 0h 54m |
| Altitude | 28000 |
| Route | RADYR2 HEC FIM RZS ELZUS |
| Aircraft | A319/M-SDFGIRWYZ/SB1 |
Departure
| Time | 2026-05-05 23:16 |
|---|---|
| Airport | Harry Reid International Airport (KLAS) |
Arrival
| Time | 2026-05-06 00:10 |
|---|---|
| Airport | Santa Maria Public Airport Captain G Allan Hancock Field (KSMX) |
| Time | Latitude | Longitude | Altitude | Speed | Heading |
|---|---|---|---|---|---|
| 2026-05-05 22:40 | 36.08638 | -115.15363 | 2188 ft | 0 kts | 97° |
| 2026-05-05 23:02 | 36.08638 | -115.15365 | 2191 ft | 2 kts | 97° |
| 2026-05-05 23:02 | 36.08642 | -115.15395 | 2188 ft | 4 kts | 97° |
| 2026-05-05 23:02 | 36.08646 | -115.15428 | 2188 ft | 4 kts | 97° |
| 2026-05-05 23:03 | 36.08649 | -115.15461 | 2188 ft | 4 kts | 97° |
| 2026-05-05 23:03 | 36.08652 | -115.15482 | 2188 ft | 0 kts | 97° |
| 2026-05-05 23:05 | 36.08651 | -115.15478 | 2188 ft | 2 kts | 106° |
| 2026-05-05 23:06 | 36.08630 | -115.15501 | 2188 ft | 7 kts | 230° |
| 2026-05-05 23:06 | 36.08596 | -115.15551 | 2188 ft | 8 kts | 231° |
| 2026-05-05 23:06 | 36.08563 | -115.15597 | 2188 ft | 6 kts | 221° |
| 2026-05-05 23:06 | 36.08527 | -115.15628 | 2188 ft | 8 kts | 212° |
| 2026-05-05 23:07 | 36.08473 | -115.15663 | 2188 ft | 9 kts | 192° |
| 2026-05-05 23:07 | 36.08411 | -115.15642 | 2188 ft | 11 kts | 156° |
| 2026-05-05 23:07 | 36.08327 | -115.15594 | 2188 ft | 15 kts | 155° |
| 2026-05-05 23:07 | 36.08224 | -115.15535 | 2188 ft | 17 kts | 155° |
| 2026-05-05 23:08 | 36.08120 | -115.15472 | 2188 ft | 17 kts | 155° |
| 2026-05-05 23:08 | 36.08016 | -115.15414 | 2188 ft | 15 kts | 155° |
| 2026-05-05 23:08 | 36.07931 | -115.15365 | 2188 ft | 12 kts | 155° |
| 2026-05-05 23:08 | 36.07865 | -115.15327 | 2188 ft | 9 kts | 155° |
| 2026-05-05 23:09 | 36.07816 | -115.15285 | 2189 ft | 8 kts | 125° |
| 2026-05-05 23:09 | 36.07806 | -115.15215 | 2189 ft | 10 kts | 92° |
| 2026-05-05 23:09 | 36.07804 | -115.15116 | 2188 ft | 12 kts | 91° |
| 2026-05-05 23:09 | 36.07798 | -115.15014 | 2189 ft | 12 kts | 95° |
| 2026-05-05 23:10 | 36.07790 | -115.14904 | 2189 ft | 14 kts | 95° |
| 2026-05-05 23:10 | 36.07782 | -115.14780 | 2188 ft | 16 kts | 93° |
| 2026-05-05 23:10 | 36.07773 | -115.14626 | 2188 ft | 20 kts | 95° |
| 2026-05-05 23:10 | 36.07760 | -115.14452 | 2192 ft | 20 kts | 95° |
| 2026-05-05 23:11 | 36.07754 | -115.14287 | 2188 ft | 19 kts | 90° |
| 2026-05-05 23:11 | 36.07754 | -115.14129 | 2188 ft | 17 kts | 89° |
| 2026-05-05 23:11 | 36.07754 | -115.13996 | 2188 ft | 14 kts | 89° |
| 2026-05-05 23:11 | 36.07754 | -115.13892 | 2189 ft | 11 kts | 90° |
| 2026-05-05 23:12 | 36.07754 | -115.13812 | 2189 ft | 8 kts | 90° |
| 2026-05-05 23:12 | 36.07754 | -115.13737 | 2189 ft | 11 kts | 90° |
| 2026-05-05 23:12 | 36.07754 | -115.13584 | 2189 ft | 21 kts | 90° |
| 2026-05-05 23:12 | 36.07754 | -115.13409 | 2190 ft | 19 kts | 89° |
| 2026-05-05 23:13 | 36.07755 | -115.13240 | 2189 ft | 20 kts | 90° |
| 2026-05-05 23:13 | 36.07755 | -115.13060 | 2189 ft | 21 kts | 90° |
| 2026-05-05 23:13 | 36.07755 | -115.12876 | 2188 ft | 22 kts | 90° |
| 2026-05-05 23:13 | 36.07755 | -115.12691 | 2188 ft | 22 kts | 90° |
| 2026-05-05 23:14 | 36.07756 | -115.12502 | 2188 ft | 21 kts | 90° |
| 2026-05-05 23:14 | 36.07755 | -115.12328 | 2188 ft | 17 kts | 90° |
| 2026-05-05 23:14 | 36.07756 | -115.12185 | 2188 ft | 15 kts | 90° |
| 2026-05-05 23:14 | 36.07695 | -115.12124 | 2189 ft | 12 kts | 180° |
| 2026-05-05 23:15 | 36.07643 | -115.12168 | 2190 ft | 11 kts | 269° |
| 2026-05-05 23:15 | 36.07642 | -115.12403 | 2188 ft | 61 kts | 270° |
| 2026-05-05 23:15 | 36.07641 | -115.13232 | 2191 ft | 128 kts | 270° |
| 2026-05-05 23:15 | 36.07643 | -115.14555 | 2233 ft | 173 kts | 270° |
| 2026-05-05 23:16 | 36.07652 | -115.16022 | 2879 ft | 170 kts | 270° |
| 2026-05-05 23:16 | 36.07656 | -115.17489 | 3530 ft | 171 kts | 270° |
| 2026-05-05 23:16 | 36.07649 | -115.19004 | 3984 ft | 185 kts | 269° |
| 2026-05-05 23:16 | 36.07626 | -115.20697 | 4253 ft | 210 kts | 265° |
| 2026-05-05 23:17 | 36.07362 | -115.22567 | 4622 ft | 232 kts | 259° |
| 2026-05-05 23:17 | 36.06943 | -115.24576 | 5159 ft | 249 kts | 243° |
| 2026-05-05 23:17 | 36.05841 | -115.26222 | 5943 ft | 258 kts | 218° |
| 2026-05-05 23:17 | 36.04163 | -115.27179 | 6628 ft | 271 kts | 200° |
| 2026-05-05 23:18 | 36.02375 | -115.27969 | 7512 ft | 276 kts | 200° |
| 2026-05-05 23:18 | 36.00560 | -115.28784 | 7863 ft | 278 kts | 201° |
| 2026-05-05 23:18 | 35.98718 | -115.29511 | 7991 ft | 279 kts | 193° |
| 2026-05-05 23:18 | 35.96801 | -115.29964 | 8759 ft | 281 kts | 192° |
| 2026-05-05 23:19 | 35.94876 | -115.30435 | 9693 ft | 283 kts | 192° |
| 2026-05-05 23:19 | 35.92920 | -115.30924 | 10388 ft | 296 kts | 192° |
| 2026-05-05 23:19 | 35.90822 | -115.31448 | 10751 ft | 318 kts | 192° |
| 2026-05-05 23:19 | 35.88619 | -115.31994 | 11407 ft | 327 kts | 192° |
| 2026-05-05 23:20 | 35.86367 | -115.32552 | 12176 ft | 333 kts | 191° |
| 2026-05-05 23:20 | 35.84081 | -115.33113 | 12970 ft | 337 kts | 191° |
| 2026-05-05 23:20 | 35.81765 | -115.33682 | 13743 ft | 341 kts | 191° |
| 2026-05-05 23:20 | 35.79426 | -115.34257 | 14485 ft | 345 kts | 191° |
| 2026-05-05 23:21 | 35.77081 | -115.34834 | 15179 ft | 350 kts | 191° |
| 2026-05-05 23:21 | 35.74686 | -115.35422 | 15883 ft | 354 kts | 191° |
| 2026-05-05 23:21 | 35.72252 | -115.36017 | 16570 ft | 358 kts | 191° |
| 2026-05-05 23:21 | 35.69796 | -115.36617 | 17217 ft | 363 kts | 191° |
| 2026-05-05 23:22 | 35.67302 | -115.37226 | 17836 ft | 368 kts | 191° |
| 2026-05-05 23:22 | 35.64778 | -115.37851 | 18458 ft | 372 kts | 192° |
| 2026-05-05 23:22 | 35.62311 | -115.38870 | 19064 ft | 377 kts | 204° |
| 2026-05-05 23:22 | 35.60032 | -115.40493 | 19690 ft | 381 kts | 216° |
| 2026-05-05 23:23 | 35.58034 | -115.42664 | 20284 ft | 386 kts | 227° |
| 2026-05-05 23:23 | 35.56226 | -115.45124 | 20883 ft | 390 kts | 228° |
| 2026-05-05 23:23 | 35.54396 | -115.47604 | 21466 ft | 393 kts | 228° |
| 2026-05-05 23:23 | 35.52546 | -115.50099 | 22040 ft | 397 kts | 227° |
| 2026-05-05 23:24 | 35.50673 | -115.52621 | 22580 ft | 402 kts | 227° |
| 2026-05-05 23:24 | 35.48781 | -115.55164 | 23128 ft | 405 kts | 227° |
| 2026-05-05 23:24 | 35.46872 | -115.57730 | 23659 ft | 409 kts | 227° |
| 2026-05-05 23:24 | 35.44951 | -115.60316 | 24165 ft | 412 kts | 228° |
| 2026-05-05 23:25 | 35.43014 | -115.62922 | 24647 ft | 415 kts | 228° |
| 2026-05-05 23:25 | 35.41059 | -115.65547 | 25137 ft | 418 kts | 228° |
| 2026-05-05 23:25 | 35.39097 | -115.68183 | 25625 ft | 420 kts | 228° |
| 2026-05-05 23:25 | 35.37122 | -115.70838 | 26126 ft | 421 kts | 228° |
| 2026-05-05 23:26 | 35.35143 | -115.73496 | 26575 ft | 424 kts | 227° |
| 2026-05-05 23:26 | 35.33151 | -115.76161 | 27021 ft | 426 kts | 227° |
| 2026-05-05 23:26 | 35.31131 | -115.78827 | 27460 ft | 428 kts | 227° |
| 2026-05-05 23:26 | 35.29097 | -115.81490 | 27799 ft | 429 kts | 227° |
| 2026-05-05 23:27 | 35.27062 | -115.84143 | 27878 ft | 421 kts | 227° |
| 2026-05-05 23:27 | 35.25088 | -115.86713 | 27897 ft | 410 kts | 227° |
| 2026-05-05 23:27 | 35.23149 | -115.89242 | 27896 ft | 406 kts | 227° |
| 2026-05-05 23:27 | 35.21222 | -115.91761 | 27896 ft | 404 kts | 227° |
| 2026-05-05 23:28 | 35.19331 | -115.94236 | 27896 ft | 403 kts | 227° |
| 2026-05-05 23:28 | 35.17399 | -115.96778 | 27897 ft | 402 kts | 227° |
| 2026-05-05 23:28 | 35.15525 | -115.99254 | 27897 ft | 402 kts | 227° |
| 2026-05-05 23:28 | 35.13634 | -116.01760 | 27902 ft | 401 kts | 228° |
| 2026-05-05 23:29 | 35.11746 | -116.04270 | 27901 ft | 401 kts | 228° |
| 2026-05-05 23:29 | 35.09856 | -116.06778 | 27899 ft | 402 kts | 228° |
| 2026-05-05 23:29 | 35.07958 | -116.09284 | 27892 ft | 402 kts | 227° |
| 2026-05-05 23:29 | 35.06051 | -116.11790 | 27887 ft | 403 kts | 227° |
| 2026-05-05 23:30 | 35.04141 | -116.14298 | 27886 ft | 404 kts | 227° |
| 2026-05-05 23:30 | 35.02847 | -116.15997 | 27887 ft | 404 kts | 227° |
| 2026-05-05 23:30 | 35.00314 | -116.19322 | 27892 ft | 404 kts | 227° |
| 2026-05-05 23:30 | 34.98404 | -116.21831 | 27897 ft | 403 kts | 227° |
| 2026-05-05 23:31 | 34.96496 | -116.24334 | 27906 ft | 403 kts | 227° |
| 2026-05-05 23:31 | 34.94589 | -116.26834 | 27916 ft | 402 kts | 227° |
| 2026-05-05 23:31 | 34.92686 | -116.29329 | 27920 ft | 402 kts | 227° |
| 2026-05-05 23:31 | 34.90781 | -116.31828 | 27924 ft | 402 kts | 227° |
| 2026-05-05 23:32 | 34.88881 | -116.34319 | 27930 ft | 401 kts | 227° |
| 2026-05-05 23:32 | 34.86979 | -116.36806 | 27934 ft | 401 kts | 227° |
| 2026-05-05 23:32 | 34.85078 | -116.39286 | 27939 ft | 400 kts | 227° |
| 2026-05-05 23:32 | 34.83181 | -116.41758 | 27952 ft | 399 kts | 227° |
| 2026-05-05 23:33 | 34.81381 | -116.44323 | 27952 ft | 398 kts | 235° |
| 2026-05-05 23:33 | 34.79980 | -116.47215 | 27954 ft | 397 kts | 245° |
| 2026-05-05 23:33 | 34.79028 | -116.50361 | 27951 ft | 396 kts | 255° |
| 2026-05-05 23:33 | 34.78442 | -116.53633 | 27949 ft | 396 kts | 258° |
| 2026-05-05 23:34 | 34.77883 | -116.56904 | 27943 ft | 396 kts | 258° |
| 2026-05-05 23:34 | 34.77318 | -116.60181 | 27936 ft | 396 kts | 258° |
| 2026-05-05 23:34 | 34.76749 | -116.63461 | 27929 ft | 396 kts | 258° |
| 2026-05-05 23:34 | 34.76180 | -116.66737 | 27927 ft | 396 kts | 258° |
| 2026-05-05 23:35 | 34.75611 | -116.70014 | 27925 ft | 396 kts | 258° |
| 2026-05-05 23:35 | 34.75233 | -116.72188 | 27924 ft | 396 kts | 258° |
| 2026-05-05 23:35 | 34.74662 | -116.75463 | 27926 ft | 397 kts | 258° |
| 2026-05-05 23:35 | 34.73903 | -116.79808 | 27918 ft | 396 kts | 258° |
| 2026-05-05 23:36 | 34.73328 | -116.83085 | 27921 ft | 396 kts | 258° |
| 2026-05-05 23:36 | 34.72754 | -116.86364 | 27911 ft | 397 kts | 258° |
| 2026-05-05 23:36 | 34.72181 | -116.89644 | 27907 ft | 397 kts | 258° |
| 2026-05-05 23:36 | 34.71609 | -116.92928 | 27910 ft | 397 kts | 258° |
| 2026-05-05 23:37 | 34.71223 | -116.95145 | 27927 ft | 397 kts | 258° |
| 2026-05-05 23:37 | 34.70647 | -116.98432 | 27918 ft | 398 kts | 258° |
| 2026-05-05 23:37 | 34.70069 | -117.01716 | 27921 ft | 398 kts | 258° |
| 2026-05-05 23:37 | 34.69489 | -117.05010 | 27922 ft | 399 kts | 258° |
| 2026-05-05 23:38 | 34.68911 | -117.08306 | 27932 ft | 399 kts | 258° |
| 2026-05-05 23:38 | 34.68332 | -117.11597 | 27938 ft | 399 kts | 258° |
| 2026-05-05 23:38 | 34.67757 | -117.14854 | 27940 ft | 399 kts | 258° |
| 2026-05-05 23:38 | 34.67170 | -117.18146 | 27946 ft | 399 kts | 258° |
| 2026-05-05 23:39 | 34.66577 | -117.21448 | 27956 ft | 400 kts | 258° |
| 2026-05-05 23:39 | 34.65986 | -117.24744 | 27957 ft | 400 kts | 258° |
| 2026-05-05 23:39 | 34.65396 | -117.28044 | 27958 ft | 400 kts | 258° |
| 2026-05-05 23:39 | 34.64807 | -117.31342 | 27962 ft | 400 kts | 258° |
| 2026-05-05 23:40 | 34.64217 | -117.34648 | 27966 ft | 400 kts | 258° |
| 2026-05-05 23:40 | 34.63627 | -117.37948 | 27969 ft | 400 kts | 258° |
| 2026-05-05 23:40 | 34.63034 | -117.41250 | 27972 ft | 400 kts | 258° |
| 2026-05-05 23:40 | 34.62440 | -117.44549 | 27975 ft | 400 kts | 258° |
| 2026-05-05 23:41 | 34.61846 | -117.47846 | 27976 ft | 400 kts | 258° |
| 2026-05-05 23:41 | 34.61250 | -117.51146 | 27976 ft | 400 kts | 258° |
| 2026-05-05 23:41 | 34.60653 | -117.54449 | 27978 ft | 400 kts | 258° |
| 2026-05-05 23:41 | 34.60056 | -117.57750 | 27977 ft | 400 kts | 258° |
| 2026-05-05 23:42 | 34.59458 | -117.61044 | 27976 ft | 400 kts | 258° |
| 2026-05-05 23:42 | 34.58858 | -117.64340 | 27972 ft | 400 kts | 258° |
| 2026-05-05 23:42 | 34.58257 | -117.67636 | 27970 ft | 400 kts | 258° |
| 2026-05-05 23:42 | 34.57659 | -117.70924 | 27969 ft | 400 kts | 258° |
| 2026-05-05 23:43 | 34.57061 | -117.74221 | 27970 ft | 399 kts | 258° |
| 2026-05-05 23:43 | 34.56463 | -117.77508 | 27969 ft | 399 kts | 258° |
| 2026-05-05 23:43 | 34.55860 | -117.80795 | 27973 ft | 399 kts | 258° |
| 2026-05-05 23:43 | 34.55253 | -117.84088 | 27978 ft | 399 kts | 258° |
| 2026-05-05 23:44 | 34.54648 | -117.87373 | 27979 ft | 399 kts | 258° |
| 2026-05-05 23:44 | 34.54045 | -117.90661 | 27983 ft | 399 kts | 258° |
| 2026-05-05 23:44 | 34.53438 | -117.93945 | 27984 ft | 399 kts | 258° |
| 2026-05-05 23:44 | 34.52830 | -117.97229 | 27982 ft | 399 kts | 258° |
| 2026-05-05 23:45 | 34.52225 | -118.00515 | 27984 ft | 399 kts | 258° |
| 2026-05-05 23:45 | 34.51667 | -118.03542 | 27984 ft | 399 kts | 258° |
| 2026-05-05 23:45 | 34.51059 | -118.06823 | 27981 ft | 399 kts | 258° |
| 2026-05-05 23:45 | 34.50448 | -118.10109 | 27976 ft | 399 kts | 258° |
| 2026-05-05 23:46 | 34.49837 | -118.13391 | 27975 ft | 400 kts | 258° |
| 2026-05-05 23:46 | 34.49225 | -118.16680 | 27979 ft | 401 kts | 258° |
| 2026-05-05 23:46 | 34.48611 | -118.19974 | 27981 ft | 401 kts | 258° |
| 2026-05-05 23:46 | 34.47995 | -118.23271 | 27983 ft | 401 kts | 258° |
| 2026-05-05 23:47 | 34.47375 | -118.26571 | 27987 ft | 401 kts | 258° |
| 2026-05-05 23:47 | 34.46756 | -118.29865 | 27992 ft | 402 kts | 258° |
| 2026-05-05 23:47 | 34.46135 | -118.33169 | 27993 ft | 402 kts | 258° |
| 2026-05-05 23:47 | 34.45515 | -118.36468 | 28000 ft | 402 kts | 258° |
| 2026-05-05 23:48 | 34.44266 | -118.43074 | 28012 ft | 403 kts | 258° |
| 2026-05-05 23:48 | 34.43013 | -118.49681 | 28006 ft | 403 kts | 258° |
| 2026-05-05 23:49 | 34.41755 | -118.56304 | 28009 ft | 404 kts | 258° |
| 2026-05-05 23:49 | 34.40500 | -118.62937 | 28006 ft | 404 kts | 258° |
| 2026-05-05 23:50 | 34.39234 | -118.69581 | 28006 ft | 405 kts | 258° |
| 2026-05-05 23:50 | 34.37959 | -118.76233 | 28005 ft | 406 kts | 259° |
| 2026-05-05 23:51 | 34.37318 | -118.79573 | 27771 ft | 408 kts | 259° |
| 2026-05-05 23:51 | 34.36676 | -118.82909 | 27513 ft | 406 kts | 259° |
| 2026-05-05 23:51 | 34.36149 | -118.86241 | 27064 ft | 400 kts | 266° |
| 2026-05-05 23:51 | 34.36086 | -118.89532 | 26607 ft | 395 kts | 276° |
| 2026-05-05 23:52 | 34.36488 | -118.92794 | 26137 ft | 389 kts | 285° |
| 2026-05-05 23:52 | 34.37064 | -118.96025 | 25684 ft | 387 kts | 285° |
| 2026-05-05 23:52 | 34.37613 | -118.99155 | 25244 ft | 384 kts | 284° |
| 2026-05-05 23:52 | 34.38162 | -119.02307 | 24799 ft | 381 kts | 284° |
| 2026-05-05 23:53 | 34.38702 | -119.05431 | 24360 ft | 377 kts | 284° |
| 2026-05-05 23:53 | 34.39237 | -119.08526 | 23911 ft | 374 kts | 284° |
| 2026-05-05 23:53 | 34.39770 | -119.11598 | 23459 ft | 371 kts | 284° |
| 2026-05-05 23:53 | 34.40306 | -119.14676 | 23006 ft | 368 kts | 284° |
| 2026-05-05 23:54 | 34.40822 | -119.17656 | 22562 ft | 365 kts | 284° |
| 2026-05-05 23:54 | 34.41339 | -119.20659 | 22112 ft | 363 kts | 284° |
| 2026-05-05 23:54 | 34.41851 | -119.23640 | 21668 ft | 360 kts | 284° |
| 2026-05-05 23:54 | 34.42361 | -119.26601 | 21221 ft | 358 kts | 284° |
| 2026-05-05 23:55 | 34.42868 | -119.29540 | 20773 ft | 356 kts | 284° |
| 2026-05-05 23:55 | 34.43370 | -119.32457 | 20328 ft | 353 kts | 284° |
| 2026-05-05 23:55 | 34.43868 | -119.35353 | 19890 ft | 350 kts | 283° |
| 2026-05-05 23:55 | 34.44361 | -119.38229 | 19467 ft | 347 kts | 283° |
| 2026-05-05 23:56 | 34.44850 | -119.41078 | 19023 ft | 344 kts | 283° |
| 2026-05-05 23:56 | 34.45335 | -119.43911 | 18591 ft | 342 kts | 283° |
| 2026-05-05 23:56 | 34.45815 | -119.46719 | 18155 ft | 340 kts | 283° |
| 2026-05-05 23:56 | 34.46293 | -119.49523 | 17688 ft | 339 kts | 283° |
| 2026-05-05 23:57 | 34.46766 | -119.52308 | 17272 ft | 336 kts | 283° |
| 2026-05-05 23:57 | 34.47236 | -119.55072 | 16862 ft | 334 kts | 283° |
| 2026-05-05 23:57 | 34.47702 | -119.57820 | 16467 ft | 332 kts | 283° |
| 2026-05-05 23:57 | 34.48165 | -119.60552 | 16066 ft | 330 kts | 283° |
| 2026-05-05 23:58 | 34.48625 | -119.63266 | 15662 ft | 328 kts | 283° |
| 2026-05-05 23:58 | 34.49080 | -119.65968 | 15270 ft | 326 kts | 283° |
| 2026-05-05 23:58 | 34.49531 | -119.68656 | 14875 ft | 325 kts | 283° |
| 2026-05-05 23:58 | 34.49982 | -119.71327 | 14488 ft | 323 kts | 283° |
| 2026-05-05 23:59 | 34.50432 | -119.73984 | 14089 ft | 321 kts | 283° |
| 2026-05-05 23:59 | 34.50911 | -119.76614 | 13679 ft | 319 kts | 287° |
| 2026-05-05 23:59 | 34.51731 | -119.79100 | 13279 ft | 316 kts | 296° |
| 2026-05-05 23:59 | 34.52664 | -119.81503 | 12872 ft | 314 kts | 296° |
| 2026-05-06 00:00 | 34.53584 | -119.83899 | 12469 ft | 312 kts | 296° |
| 2026-05-06 00:00 | 34.54492 | -119.86283 | 12061 ft | 310 kts | 296° |
| 2026-05-06 00:00 | 34.55381 | -119.88620 | 11656 ft | 308 kts | 296° |
| 2026-05-06 00:00 | 34.56279 | -119.90975 | 11255 ft | 306 kts | 296° |
| 2026-05-06 00:01 | 34.57169 | -119.93312 | 10850 ft | 304 kts | 296° |
| 2026-05-06 00:01 | 34.58052 | -119.95633 | 10448 ft | 302 kts | 296° |
| 2026-05-06 00:01 | 34.58928 | -119.97938 | 10117 ft | 298 kts | 295° |
| 2026-05-06 00:01 | 34.59777 | -120.00179 | 9911 ft | 289 kts | 296° |
| 2026-05-06 00:02 | 34.60608 | -120.02372 | 9775 ft | 285 kts | 296° |
| 2026-05-06 00:02 | 34.61437 | -120.04552 | 9476 ft | 284 kts | 296° |
| 2026-05-06 00:02 | 34.62264 | -120.06725 | 9095 ft | 283 kts | 296° |
| 2026-05-06 00:02 | 34.63084 | -120.08884 | 8715 ft | 281 kts | 296° |
| 2026-05-06 00:03 | 34.63899 | -120.11031 | 8330 ft | 279 kts | 296° |
| 2026-05-06 00:03 | 34.64709 | -120.13167 | 7941 ft | 278 kts | 295° |
| 2026-05-06 00:03 | 34.65512 | -120.15285 | 7565 ft | 275 kts | 295° |
| 2026-05-06 00:03 | 34.66310 | -120.17392 | 7194 ft | 274 kts | 295° |
| 2026-05-06 00:04 | 34.67103 | -120.19490 | 6815 ft | 272 kts | 295° |
| 2026-05-06 00:04 | 34.67891 | -120.21572 | 6438 ft | 271 kts | 295° |
| 2026-05-06 00:04 | 34.68676 | -120.23646 | 6067 ft | 269 kts | 295° |
| 2026-05-06 00:04 | 34.69450 | -120.25700 | 5708 ft | 266 kts | 295° |
| 2026-05-06 00:05 | 34.70974 | -120.29741 | 4981 ft | 261 kts | 295° |
| 2026-05-06 00:05 | 34.71744 | -120.31723 | 4625 ft | 257 kts | 299° |
| 2026-05-06 00:05 | 34.72926 | -120.33312 | 4264 ft | 254 kts | 325° |
| 2026-05-06 00:06 | 34.74446 | -120.34383 | 3915 ft | 250 kts | 330° |
| 2026-05-06 00:06 | 34.75925 | -120.35390 | 3583 ft | 238 kts | 329° |
| 2026-05-06 00:06 | 34.77335 | -120.36353 | 3269 ft | 228 kts | 329° |
| 2026-05-06 00:06 | 34.78698 | -120.37285 | 2970 ft | 223 kts | 329° |
| 2026-05-06 00:07 | 34.80056 | -120.38219 | 2651 ft | 223 kts | 329° |
| 2026-05-06 00:07 | 34.81384 | -120.39130 | 2346 ft | 214 kts | 328° |
| 2026-05-06 00:07 | 34.82701 | -120.39853 | 2252 ft | 200 kts | 340° |
| 2026-05-06 00:07 | 34.84019 | -120.40193 | 2107 ft | 185 kts | 347° |
| 2026-05-06 00:08 | 34.85207 | -120.40477 | 1900 ft | 163 kts | 338° |
| 2026-05-06 00:08 | 34.86171 | -120.41041 | 1557 ft | 147 kts | 322° |
| 2026-05-06 00:08 | 34.86940 | -120.41789 | 1214 ft | 137 kts | 312° |
| 2026-05-06 00:08 | 34.87594 | -120.42585 | 941 ft | 130 kts | 311° |
| 2026-05-06 00:09 | 34.88225 | -120.43335 | 698 ft | 124 kts | 312° |
| 2026-05-06 00:09 | 34.88834 | -120.44062 | 447 ft | 122 kts | 313° |
| 2026-05-06 00:09 | 34.89435 | -120.44783 | 280 ft | 120 kts | 313° |
| 2026-05-06 00:09 | 34.89965 | -120.45408 | 246 ft | 86 kts | 316° |
| 2026-05-06 00:10 | 34.90222 | -120.45714 | 239 ft | 22 kts | 316° |
| 2026-05-06 00:10 | 34.90308 | -120.45717 | 238 ft | 12 kts | 41° |
| 2026-05-06 00:10 | 34.90355 | -120.45658 | 238 ft | 7 kts | 48° |
| 2026-05-06 00:10 | 34.90343 | -120.45610 | 239 ft | 6 kts | 128° |
| 2026-05-06 00:11 | 34.90321 | -120.45580 | 240 ft | 4 kts | 137° |
| 2026-05-06 00:11 | 34.90290 | -120.45545 | 241 ft | 9 kts | 138° |
| 2026-05-06 00:11 | 34.90236 | -120.45484 | 242 ft | 11 kts | 136° |
| 2026-05-06 00:11 | 34.90178 | -120.45414 | 244 ft | 12 kts | 135° |
| 2026-05-06 00:12 | 34.90119 | -120.45345 | 247 ft | 12 kts | 136° |
| 2026-05-06 00:12 | 34.90051 | -120.45263 | 248 ft | 16 kts | 135° |
| 2026-05-06 00:12 | 34.89967 | -120.45163 | 249 ft | 17 kts | 136° |
| 2026-05-06 00:12 | 34.89889 | -120.45067 | 252 ft | 15 kts | 129° |
| 2026-05-06 00:13 | 34.89883 | -120.44961 | 251 ft | 5 kts | 88° |
| 2026-05-06 00:13 | 34.89883 | -120.44960 | 251 ft | 0 kts | 88° |
| 2026-05-06 00:17 | 34.89883 | -120.44958 | 251 ft | 1 kts | 88° |
| 2026-05-06 00:17 | 34.89883 | -120.44949 | 251 ft | 1 kts | 89° |
| 2026-05-06 00:18 | 34.89878 | -120.44934 | 251 ft | 7 kts | 113° |
| 2026-05-06 00:18 | 34.89887 | -120.44887 | 251 ft | 5 kts | 57° |
| 2026-05-06 00:18 | 34.89896 | -120.44872 | 251 ft | 2 kts | 47° |
| 2026-05-06 00:18 | 34.89901 | -120.44867 | 251 ft | 0 kts | 42° |